createdAt,value
2022-10-30T00:03:37.258Z,23.77
2022-10-30T00:08:37.451Z,23.24
2022-10-30T00:13:32.772Z,23.82
2022-10-30T00:18:36.358Z,23.68
2022-10-30T00:23:31.766Z,23.37
2022-10-30T00:28:34.395Z,24.05
2022-10-30T00:33:31.039Z,23.19
2022-10-30T00:38:30.374Z,22.34
2022-10-30T00:43:33.011Z,22.88
2022-10-30T00:48:29.254Z,24.09
2022-10-30T00:53:28.564Z,23.40
2022-10-30T00:58:32.143Z,24.07
2022-10-30T01:03:27.651Z,22.47
2022-10-30T01:08:30.062Z,23.48
2022-10-30T01:13:27.229Z,24.51
2022-10-30T01:18:25.582Z,24.42
2022-10-30T01:23:27.969Z,23.27
2022-10-30T01:28:24.406Z,23.07
2022-10-30T01:33:23.662Z,23.29
2022-10-30T01:38:26.061Z,23.61
2022-10-30T01:43:22.307Z,22.76
2022-10-30T01:48:21.741Z,23.28
2022-10-30T01:53:24.166Z,23.67
2022-10-30T01:58:20.592Z,23.12
2022-10-30T02:03:22.911Z,23.09
2022-10-30T02:08:20.036Z,23.03
2022-10-30T02:13:19.091Z,22.56
2022-10-30T02:18:20.506Z,22.66
2022-10-30T02:23:19.934Z,22.77
2022-10-30T02:28:16.224Z,23.48
2022-10-30T02:33:15.588Z,23.08
2022-10-30T02:38:18.353Z,23.37
2022-10-30T02:43:14.347Z,24.23
2022-10-30T02:48:17.820Z,23.52
2022-10-30T02:53:14.007Z,23.77
2022-10-30T02:58:13.655Z,24.37
2022-10-30T03:03:18.684Z,23.67
2022-10-30T03:08:12.608Z,24.57
2022-10-30T03:13:12.078Z,24.06
2022-10-30T03:18:14.982Z,23.99
2022-10-30T03:23:11.072Z,22.86
2022-10-30T03:28:10.313Z,23.79
2022-10-30T03:33:12.632Z,23.19
2022-10-30T03:38:09.073Z,23.34
2022-10-30T03:43:08.419Z,22.89
2022-10-30T03:48:10.729Z,22.50
2022-10-30T03:53:06.875Z,22.17
2022-10-30T03:58:06.247Z,21.93
2022-10-30T04:03:05.462Z,22.64
2022-10-30T04:08:07.906Z,23.14
2022-10-30T04:13:04.142Z,22.56
2022-10-30T04:18:03.971Z,23.30
2022-10-30T04:23:03.046Z,22.73
2022-10-30T04:28:06.349Z,22.66
2022-10-30T04:33:01.972Z,22.89
2022-10-30T04:38:01.935Z,23.42
2022-10-30T04:43:01.396Z,24.26
2022-10-30T04:48:01.410Z,24.27
2022-10-30T04:52:59.775Z,23.47
2022-10-30T04:58:02.533Z,23.14
2022-10-30T05:02:59.668Z,23.43
2022-10-30T05:08:01.884Z,22.98
2022-10-30T05:12:57.614Z,23.50
2022-10-30T05:18:00.276Z,23.17
2022-10-30T05:22:56.798Z,23.36
2022-10-30T05:27:56.487Z,23.19
2022-10-30T05:32:59.495Z,23.01
2022-10-30T05:37:55.056Z,23.48
2022-10-30T05:42:54.533Z,23.64
2022-10-30T05:47:57.996Z,25.21
2022-10-30T05:52:53.523Z,25.09
2022-10-30T05:57:53.849Z,24.07
2022-10-30T06:02:51.999Z,24.86
2022-10-30T06:07:54.649Z,25.51
2022-10-30T06:12:50.999Z,25.60
2022-10-30T06:17:50.539Z,25.80
2022-10-30T06:22:52.927Z,24.57
2022-10-30T06:27:49.297Z,23.73
2022-10-30T06:32:48.700Z,24.43
2022-10-30T06:37:51.650Z,24.94
2022-10-30T06:42:47.932Z,25.18
2022-10-30T06:47:48.517Z,25.63
2022-10-30T06:52:49.826Z,24.32
2022-10-30T06:57:48.764Z,23.83
2022-10-30T07:02:49.556Z,24.41
2022-10-30T07:07:48.702Z,23.19
2022-10-30T07:12:48.364Z,23.04
2022-10-30T07:17:44.766Z,23.44
2022-10-30T07:22:48.133Z,23.15
2022-10-30T07:27:43.670Z,21.20
2022-10-30T07:32:43.182Z,23.47
2022-10-30T07:37:45.864Z,24.58
2022-10-30T07:42:42.048Z,23.48
2022-10-30T07:47:41.426Z,24.66
2022-10-30T07:52:40.492Z,24.52
2022-10-30T07:57:40.234Z,25.20
2022-10-30T08:02:39.551Z,25.43
2022-10-30T08:07:42.537Z,23.34
2022-10-30T08:12:38.908Z,22.13
2022-10-30T08:17:38.213Z,22.39
2022-10-30T08:22:40.537Z,23.03
2022-10-30T08:27:36.983Z,22.64
2022-10-30T08:32:36.350Z,22.95
2022-10-30T08:37:39.246Z,24.22
2022-10-30T08:42:35.920Z,23.27
2022-10-30T08:47:38.444Z,24.06
2022-10-30T08:52:38.392Z,24.85
2022-10-30T08:57:34.854Z,24.51
2022-10-30T09:02:34.361Z,24.47
2022-10-30T09:07:37.187Z,24.91
2022-10-30T09:12:33.634Z,22.79
2022-10-30T09:17:33.326Z,21.84
2022-10-30T09:22:35.833Z,21.31
2022-10-30T09:27:32.129Z,22.35
2022-10-30T09:32:34.914Z,22.76
2022-10-30T09:37:35.358Z,21.67
2022-10-30T09:42:30.935Z,21.94
2022-10-30T09:47:32.469Z,24.12
2022-10-30T09:52:29.974Z,21.97
2022-10-30T09:57:29.656Z,21.95
2022-10-30T10:02:29.431Z,22.77
2022-10-30T10:07:33.179Z,21.62
2022-10-30T10:12:28.606Z,22.17
2022-10-30T10:17:29.163Z,22.64
2022-10-30T10:22:27.493Z,21.29
2022-10-30T10:27:31.084Z,21.59
2022-10-30T10:32:26.743Z,22.91
2022-10-30T10:37:26.315Z,22.03
2022-10-30T10:42:28.962Z,23.27
2022-10-30T10:47:25.139Z,23.45
2022-10-30T10:52:29.546Z,22.62
2022-10-30T10:57:25.655Z,24.06
2022-10-30T11:02:31.248Z,24.07
2022-10-30T11:07:23.112Z,22.95
2022-10-30T11:12:36.198Z,22.42
2022-10-30T11:17:26.136Z,22.86
2022-10-30T11:22:21.803Z,23.08
2022-10-30T11:27:21.159Z,23.01
2022-10-30T11:32:23.549Z,24.40
2022-10-30T11:37:21.598Z,24.55
2022-10-30T11:42:18.906Z,23.85
2022-10-30T11:47:21.905Z,22.18
2022-10-30T11:52:17.188Z,23.80
2022-10-30T11:57:17.143Z,25.82
2022-10-30T12:02:16.819Z,27.08
2022-10-30T12:07:16.640Z,26.98
2022-10-30T12:12:25.046Z,26.06
2022-10-30T12:17:15.218Z,25.40
2022-10-30T12:22:17.762Z,24.95
2022-10-30T12:27:21.385Z,26.50
2022-10-30T12:32:14.754Z,26.85
2022-10-30T12:37:12.883Z,26.60
2022-10-30T12:42:15.687Z,25.60
2022-10-30T12:47:12.473Z,24.48
2022-10-30T12:52:11.785Z,25.02
2022-10-30T12:57:11.513Z,25.46
2022-10-30T13:02:14.082Z,26.67
2022-10-30T13:07:10.392Z,26.06
2022-10-30T13:12:09.746Z,27.64
2022-10-30T13:17:12.639Z,26.40
2022-10-30T13:22:09.130Z,27.41
2022-10-30T13:27:11.553Z,26.89
2022-10-30T13:32:10.829Z,26.77
2022-10-30T13:37:07.148Z,25.98
2022-10-30T13:42:09.441Z,25.33
2022-10-30T13:47:05.825Z,25.44
2022-10-30T13:52:05.556Z,26.44
2022-10-30T13:57:08.120Z,25.56
2022-10-30T14:02:07.535Z,26.74
2022-10-30T14:07:07.069Z,25.36
2022-10-30T14:12:03.186Z,25.98
2022-10-30T14:17:02.967Z,24.88
2022-10-30T14:22:06.590Z,25.29
2022-10-30T14:27:02.248Z,25.51
2022-10-30T14:32:01.665Z,26.55
2022-10-30T14:37:04.583Z,26.17
2022-10-30T14:42:01.342Z,25.86
2022-10-30T14:47:02.053Z,25.97
2022-10-30T14:52:03.780Z,25.91
2022-10-30T14:57:03.235Z,25.92
2022-10-30T15:02:00.027Z,25.13
2022-10-30T15:06:59.783Z,26.94
2022-10-30T15:12:02.149Z,26.90
2022-10-30T15:16:58.421Z,26.88
2022-10-30T15:21:57.838Z,27.11
2022-10-30T15:27:00.183Z,26.03
2022-10-30T15:31:56.980Z,26.09
2022-10-30T15:36:56.792Z,25.74
2022-10-30T15:41:59.219Z,26.07
2022-10-30T15:46:55.830Z,26.33
2022-10-30T15:51:55.068Z,25.88
2022-10-30T15:57:27.518Z,25.80
2022-10-30T16:01:54.093Z,25.94
2022-10-30T16:06:53.631Z,26.80
2022-10-30T16:11:56.409Z,25.82
2022-10-30T16:16:53.186Z,25.70
2022-10-30T16:21:52.590Z,23.94
2022-10-30T16:26:55.353Z,23.77
2022-10-30T16:31:51.668Z,24.19
2022-10-30T16:36:51.304Z,24.31
2022-10-30T16:41:53.690Z,23.50
2022-10-30T16:46:51.142Z,24.92
2022-10-30T16:51:50.534Z,24.45
2022-10-30T16:56:52.617Z,23.77
2022-10-30T17:01:48.160Z,23.38
2022-10-30T17:06:50.060Z,24.15
2022-10-30T17:11:57.047Z,23.21
2022-10-30T17:17:02.311Z,23.72
2022-10-30T17:21:52.720Z,24.18
2022-10-30T17:26:49.369Z,22.86
2022-10-30T17:31:52.012Z,22.70
2022-10-30T17:36:45.291Z,23.52
2022-10-30T17:41:48.189Z,23.97
2022-10-30T17:46:44.515Z,25.08
2022-10-30T17:51:43.972Z,23.88
2022-10-30T17:56:46.862Z,23.45
2022-10-30T18:01:46.287Z,23.38
2022-10-30T18:06:42.683Z,24.24
2022-10-30T18:11:45.015Z,22.80
2022-10-30T18:16:44.522Z,22.60
2022-10-30T18:21:40.848Z,22.88
2022-10-30T18:26:40.999Z,22.13
2022-10-30T18:31:39.605Z,22.37
2022-10-30T18:36:38.959Z,22.28
2022-10-30T18:41:38.112Z,22.22
2022-10-30T18:46:40.671Z,23.39
2022-10-30T18:51:37.031Z,22.59
2022-10-30T18:56:36.426Z,22.37
2022-10-30T19:01:39.919Z,21.89
2022-10-30T19:06:35.677Z,21.52
2022-10-30T19:11:37.205Z,23.24
2022-10-30T19:16:37.932Z,23.07
2022-10-30T19:21:35.168Z,22.82
2022-10-30T19:26:33.876Z,23.44
2022-10-30T19:31:36.185Z,23.13
2022-10-30T19:36:33.044Z,23.60
2022-10-30T19:41:32.677Z,24.46
2022-10-30T19:46:35.570Z,24.23
2022-10-30T19:51:31.680Z,24.34
2022-10-30T19:56:34.179Z,25.18
2022-10-30T20:01:33.642Z,24.15
2022-10-30T20:06:30.632Z,24.70
2022-10-30T20:11:30.039Z,24.77
2022-10-30T20:16:33.921Z,25.14
2022-10-30T20:21:29.989Z,25.14
2022-10-30T20:26:33.854Z,23.92
2022-10-30T20:31:32.315Z,23.94
2022-10-30T20:36:34.333Z,24.72
2022-10-30T20:41:31.783Z,24.60
2022-10-30T20:46:27.023Z,24.58
2022-10-30T20:51:26.531Z,24.08
2022-10-30T20:56:25.849Z,24.17
2022-10-30T21:01:25.254Z,24.20
2022-10-30T21:06:27.811Z,23.90
2022-10-30T21:11:24.383Z,23.35
2022-10-30T21:16:23.767Z,24.04
2022-10-30T21:21:25.758Z,23.34
2022-10-30T21:26:22.272Z,23.27
2022-10-30T21:31:24.812Z,22.81
2022-10-30T21:36:21.082Z,23.99
2022-10-30T21:41:22.006Z,23.30
2022-10-30T21:46:23.488Z,23.27
2022-10-30T21:51:19.778Z,24.13
2022-10-30T21:56:22.385Z,23.91
2022-10-30T22:01:18.632Z,23.98
2022-10-30T22:06:17.974Z,24.01
2022-10-30T22:28:06.348Z,20.97
2022-10-30T22:33:58.927Z,25.44
2022-10-30T22:38:55.287Z,25.74
2022-10-30T22:43:54.685Z,26.31
2022-10-30T22:48:54.175Z,24.86
2022-10-30T22:53:56.721Z,25.14
2022-10-30T22:58:53.102Z,24.93
2022-10-30T23:03:52.316Z,25.17
2022-10-30T23:08:55.411Z,25.99
2022-10-30T23:13:51.319Z,25.77
2022-10-30T23:18:50.894Z,24.57
2022-10-30T23:23:54.629Z,24.69
2022-10-30T23:28:50.063Z,25.85
2022-10-30T23:33:52.681Z,25.33
2022-10-30T23:38:49.065Z,26.59
2022-10-30T23:43:48.463Z,25.39
2022-10-30T23:48:47.880Z,25.57
2022-10-30T23:53:50.375Z,26.95
2022-10-30T23:58:46.855Z,25.36
